Time;durP1;ratioP1;P1;durP2;ratioP2;P2;SDS_P1;SDS_P2;PMS_P1;PMS_P2;Temp;Humidity;BMP_temperature;BMP_pressure;BME280_temperature;BME280_humidity;BME280_pressure;Samples;Min_cycle;Max_cycle;Signal;HPM_P1;HPM_P2
2020/12/19 00:00:08;;;;;;;15.73;9.95;;;;;;;;;;4955767;28;20051;-63
2020/12/19 00:02:36;;;;;;;16.73;10.90;;;;;;;;;;4956179;28;20086;-63
2020/12/19 00:05:02;;;;;;;16.75;9.75;;;;;;;;;;4955584;28;20045;-63
2020/12/19 00:07:29;;;;;;;15.07;9.30;;;;;;;;;;4954974;28;20054;-64
2020/12/19 00:09:55;;;;;;;14.30;9.43;;;;;;;;;;4955958;28;20065;-63
2020/12/19 00:12:22;;;;;;;17.05;9.55;;;;;;;;;;4955965;28;20072;-63
2020/12/19 00:14:49;;;;;;;13.93;9.10;;;;;;;;;;4955262;28;20314;-63
2020/12/19 00:17:16;;;;;;;11.27;8.48;;;;;;;;;;4955426;28;20145;-64
2020/12/19 00:19:42;;;;;;;13.50;9.15;;;;;;;;;;4955663;28;20478;-64
2020/12/19 00:22:08;;;;;;;13.85;9.05;;;;;;;;;;4955893;28;20066;-63
2020/12/19 00:24:35;;;;;;;12.30;8.30;;;;;;;;;;4955039;28;20490;-63
2020/12/19 00:27:01;;;;;;;16.45;8.82;;;;;;;;;;4955142;28;20402;-63
2020/12/19 00:29:27;;;;;;;12.10;8.52;;;;;;;;;;4955737;28;20062;-63
2020/12/19 00:31:53;;;;;;;15.07;9.05;;;;;;;;;;4955434;28;20074;-63
2020/12/19 00:34:19;;;;;;;13.93;8.85;;;;;;;;;;4972627;28;20061;-63
2020/12/19 00:36:46;;;;;;;13.02;8.93;;;;;;;;;;4954270;28;20054;-64
2020/12/19 00:39:12;;;;;;;12.82;8.00;;;;;;;;;;4972657;28;20047;-63
2020/12/19 00:41:38;;;;;;;12.02;8.38;;;;;;;;;;4955527;28;20055;-64
2020/12/19 00:44:04;;;;;;;12.07;7.60;;;;;;;;;;4955278;28;20046;-63
2020/12/19 00:46:30;;;;;;;11.75;7.97;;;;;;;;;;4954711;28;20043;-64
2020/12/19 00:48:56;;;;;;;12.88;9.30;;;;;;;;;;4955471;28;20058;-63
2020/12/19 00:51:23;;;;;;;12.50;9.02;;;;;;;;;;4955511;28;20047;-64
2020/12/19 00:53:50;;;;;;;13.80;8.77;;;;;;;;;;4954903;28;20174;-63
2020/12/19 00:56:17;;;;;;;14.30;9.00;;;;;;;;;;4955503;28;20054;-63
2020/12/19 00:58:44;;;;;;;12.60;8.20;;;;;;;;;;4955175;28;20063;-64
2020/12/19 01:01:10;;;;;;;12.55;8.63;;;;;;;;;;4956097;28;20058;-64
2020/12/19 01:03:37;;;;;;;12.27;8.65;;;;;;;;;;4958906;28;20106;-64
2020/12/19 01:06:03;;;;;;;11.23;7.95;;;;;;;;;;4958092;28;20046;-63
2020/12/19 01:08:29;;;;;;;11.38;8.23;;;;;;;;;;4959001;28;20058;-63
2020/12/19 01:10:55;;;;;;;11.20;8.55;;;;;;;;;;4958728;28;20070;-64
2020/12/19 01:13:21;;;;;;;13.60;9.50;;;;;;;;;;4958605;28;20047;-63
2020/12/19 01:15:47;;;;;;;13.80;8.98;;;;;;;;;;4958047;28;20042;-63
2020/12/19 01:18:16;;;;;;;10.95;8.10;;;;;;;;;;4958773;28;20109;-63
2020/12/19 01:20:42;;;;;;;13.48;9.13;;;;;;;;;;4958410;28;20058;-63
2020/12/19 01:23:08;;;;;;;11.68;8.15;;;;;;;;;;4958648;28;20077;-63
2020/12/19 01:25:35;;;;;;;13.45;8.75;;;;;;;;;;4957951;28;20043;-63
2020/12/19 01:28:01;;;;;;;13.82;7.95;;;;;;;;;;4958498;28;20053;-63
2020/12/19 01:30:27;;;;;;;11.65;7.93;;;;;;;;;;4958807;28;20046;-64
2020/12/19 01:32:53;;;;;;;11.70;8.25;;;;;;;;;;4958373;28;20050;-63
2020/12/19 01:35:35;;;;;;;11.23;8.15;;;;;;;;;;4940777;29;20517;-63
2020/12/19 01:38:01;;;;;;;11.52;7.75;;;;;;;;;;4955123;29;20043;-63
2020/12/19 01:40:27;;;;;;;11.57;7.60;;;;;;;;;;4955196;29;20501;-63
2020/12/19 01:42:54;;;;;;;10.73;7.20;;;;;;;;;;4939308;29;20390;-63
2020/12/19 01:45:20;;;;;;;12.13;8.48;;;;;;;;;;4956975;28;20043;-63
2020/12/19 01:47:46;;;;;;;10.95;7.28;;;;;;;;;;4958240;28;20501;-63
2020/12/19 01:50:12;;;;;;;11.70;7.85;;;;;;;;;;4942805;28;20134;-63
2020/12/19 01:52:38;;;;;;;10.75;7.85;;;;;;;;;;4941950;28;20061;-63
2020/12/19 01:55:05;;;;;;;11.93;7.85;;;;;;;;;;4941595;28;20073;-64
2020/12/19 01:57:32;;;;;;;11.43;8.40;;;;;;;;;;4942068;28;20046;-63
2020/12/19 01:59:59;;;;;;;13.18;8.63;;;;;;;;;;4957956;28;20051;-64
2020/12/19 02:02:25;;;;;;;12.10;8.45;;;;;;;;;;4957822;28;20504;-63
2020/12/19 02:04:53;;;;;;;13.55;8.43;;;;;;;;;;4957912;28;20051;-64
2020/12/19 02:07:20;;;;;;;12.10;7.93;;;;;;;;;;4957216;28;20448;-64
2020/12/19 02:09:46;;;;;;;13.48;8.05;;;;;;;;;;4957859;28;20081;-63
2020/12/19 02:12:12;;;;;;;11.95;8.38;;;;;;;;;;4957562;28;20058;-63
2020/12/19 02:14:39;;;;;;;12.77;8.85;;;;;;;;;;4957154;28;20055;-63
2020/12/19 02:17:07;;;;;;;14.55;8.48;;;;;;;;;;4957314;28;20053;-63
2020/12/19 02:19:34;;;;;;;12.15;9.57;;;;;;;;;;4957454;28;20055;-63
2020/12/19 02:22:00;;;;;;;11.02;8.20;;;;;;;;;;4957613;28;20055;-63
2020/12/19 02:24:26;;;;;;;14.52;9.18;;;;;;;;;;4957112;28;20513;-64
2020/12/19 02:26:54;;;;;;;19.65;11.18;;;;;;;;;;4956618;28;20050;-63
2020/12/19 02:29:22;;;;;;;12.68;8.70;;;;;;;;;;4957341;28;20512;-63
2020/12/19 02:31:48;;;;;;;12.63;8.15;;;;;;;;;;4957308;28;20061;-63
2020/12/19 02:34:15;;;;;;;12.02;8.23;;;;;;;;;;4957264;28;20051;-63
2020/12/19 02:36:41;;;;;;;11.38;8.30;;;;;;;;;;4956356;28;20051;-63
2020/12/19 02:39:08;;;;;;;12.82;8.68;;;;;;;;;;4957262;28;20095;-63
2020/12/19 02:41:43;;;;;;;14.90;8.80;;;;;;;;;;4957089;28;20138;-63
2020/12/19 02:44:15;;;;;;;13.07;9.07;;;;;;;;;;4956929;28;20065;-63
2020/12/19 02:46:41;;;;;;;12.07;8.43;;;;;;;;;;4956553;28;20058;-63
2020/12/19 02:49:07;;;;;;;11.27;8.07;;;;;;;;;;4957283;28;20055;-63
2020/12/19 02:51:34;;;;;;;12.23;8.70;;;;;;;;;;4957219;28;20409;-63
2020/12/19 02:54:00;;;;;;;14.38;9.18;;;;;;;;;;4956739;28;20050;-63
2020/12/19 02:56:26;;;;;;;12.65;8.82;;;;;;;;;;4956623;28;20505;-63
2020/12/19 02:58:52;;;;;;;12.88;8.45;;;;;;;;;;4956963;28;20406;-63
2020/12/19 03:01:19;;;;;;;11.05;8.45;;;;;;;;;;4957234;28;20058;-63
2020/12/19 03:03:45;;;;;;;11.50;8.13;;;;;;;;;;4956793;28;20053;-63
2020/12/19 03:06:27;;;;;;;13.35;9.52;;;;;;;;;;4945019;28;20062;-63
2020/12/19 03:08:53;;;;;;;12.02;9.10;;;;;;;;;;4956664;28;20053;-63
2020/12/19 03:11:20;;;;;;;12.57;8.95;;;;;;;;;;4957126;28;20059;-63
2020/12/19 03:13:46;;;;;;;14.80;9.73;;;;;;;;;;4957321;28;20047;-63
2020/12/19 03:16:13;;;;;;;10.93;8.57;;;;;;;;;;4956559;28;20054;-63
2020/12/19 03:18:39;;;;;;;13.77;9.15;;;;;;;;;;4957685;28;20054;-63
2020/12/19 03:21:05;;;;;;;16.60;9.70;;;;;;;;;;4957357;28;20051;-63
2020/12/19 03:23:31;;;;;;;13.60;9.52;;;;;;;;;;4956532;28;20059;-63
2020/12/19 03:25:58;;;;;;;13.73;9.45;;;;;;;;;;4955617;28;20050;-64
2020/12/19 03:28:24;;;;;;;14.82;9.43;;;;;;;;;;4956346;28;20047;-63
2020/12/19 03:30:50;;;;;;;10.98;9.05;;;;;;;;;;4956230;28;20062;-63
2020/12/19 03:37:03;;;;;;;16.88;10.73;;;;;;;;;;4999315;23;20165;-63
2020/12/19 03:39:29;;;;;;;14.10;9.00;;;;;;;;;;4992467;28;20541;-63
2020/12/19 03:41:56;;;;;;;15.90;9.88;;;;;;;;;;4992804;28;20046;-63
2020/12/19 03:44:22;;;;;;;16.15;9.60;;;;;;;;;;4974524;28;20046;-63
2020/12/19 03:46:48;;;;;;;13.35;9.18;;;;;;;;;;4972506;28;20047;-63
2020/12/19 03:49:14;;;;;;;12.90;9.05;;;;;;;;;;4973632;28;20042;-63
2020/12/19 03:51:40;;;;;;;12.80;8.85;;;;;;;;;;4973267;28;20557;-63
2020/12/19 03:54:06;;;;;;;14.18;9.38;;;;;;;;;;4975946;28;20086;-63
2020/12/19 03:56:32;;;;;;;13.80;8.90;;;;;;;;;;4972575;28;20051;-63
2020/12/19 03:58:58;;;;;;;12.30;8.55;;;;;;;;;;4973134;28;20062;-63
2020/12/19 04:01:24;;;;;;;12.90;8.15;;;;;;;;;;4973186;28;20086;-63
2020/12/19 04:07:16;;;;;;;13.30;8.73;;;;;;;;;;4950158;29;20059;-63
2020/12/19 04:09:42;;;;;;;12.93;9.43;;;;;;;;;;4953039;29;20039;-63
2020/12/19 04:12:09;;;;;;;13.75;9.32;;;;;;;;;;4951966;29;20055;-63
2020/12/19 04:14:38;;;;;;;16.27;12.32;;;;;;;;;;4936189;29;20051;-63
2020/12/19 04:17:08;;;;;;;21.05;13.02;;;;;;;;;;4953228;29;20372;-63
2020/12/19 04:19:35;;;;;;;16.20;11.88;;;;;;;;;;4952713;29;20051;-63
2020/12/19 04:22:02;;;;;;;12.60;10.38;;;;;;;;;;4952399;29;20051;-63
2020/12/19 04:24:28;;;;;;;15.77;10.80;;;;;;;;;;4951892;29;20418;-63
2020/12/19 04:26:55;;;;;;;15.52;9.20;;;;;;;;;;4935933;29;20406;-63
2020/12/19 04:29:21;;;;;;;12.18;9.40;;;;;;;;;;4936510;29;20063;-63
2020/12/19 04:31:47;;;;;;;13.32;9.38;;;;;;;;;;4952202;29;20043;-63
2020/12/19 04:34:14;;;;;;;13.45;9.30;;;;;;;;;;4935906;29;20063;-63
2020/12/19 04:36:40;;;;;;;14.25;8.88;;;;;;;;;;4952683;28;20054;-63
2020/12/19 04:39:06;;;;;;;12.07;8.85;;;;;;;;;;4956129;29;20051;-63
2020/12/19 04:41:34;;;;;;;13.30;9.45;;;;;;;;;;4956350;29;20055;-64
2020/12/19 04:44:02;;;;;;;13.32;9.32;;;;;;;;;;4954308;29;20051;-63
2020/12/19 04:46:29;;;;;;;12.60;8.85;;;;;;;;;;4955253;29;20047;-63
2020/12/19 04:48:57;;;;;;;14.02;9.45;;;;;;;;;;4940123;29;20051;-63
2020/12/19 04:51:24;;;;;;;14.52;9.45;;;;;;;;;;4956084;29;20055;-63
2020/12/19 04:53:50;;;;;;;13.50;9.27;;;;;;;;;;4939947;29;20062;-63
2020/12/19 04:56:16;;;;;;;13.75;9.00;;;;;;;;;;4955392;29;20066;-63
2020/12/19 04:58:43;;;;;;;14.50;9.23;;;;;;;;;;4923930;29;20513;-63
2020/12/19 05:01:09;;;;;;;13.00;8.88;;;;;;;;;;4955730;29;20430;-63
2020/12/19 05:03:38;;;;;;;14.45;9.18;;;;;;;;;;4955405;29;20478;-63
2020/12/19 05:06:04;;;;;;;12.02;9.13;;;;;;;;;;4938928;29;20050;-63
2020/12/19 05:08:30;;;;;;;14.27;8.57;;;;;;;;;;4930135;29;20046;-63
2020/12/19 05:10:56;;;;;;;14.18;9.40;;;;;;;;;;4944015;29;20079;-63
2020/12/19 05:13:23;;;;;;;13.50;9.75;;;;;;;;;;4944668;29;20062;-63
2020/12/19 05:15:49;;;;;;;12.98;8.57;;;;;;;;;;4943556;29;20055;-63
2020/12/19 05:18:16;;;;;;;16.77;8.90;;;;;;;;;;4929663;29;20155;-63
2020/12/19 05:20:42;;;;;;;14.32;9.95;;;;;;;;;;4942528;29;20059;-63
2020/12/19 05:23:09;;;;;;;13.40;9.65;;;;;;;;;;4928060;29;20494;-64
2020/12/19 05:25:38;;;;;;;12.98;9.00;;;;;;;;;;4943749;29;20044;-63
2020/12/19 05:28:05;;;;;;;14.10;9.23;;;;;;;;;;4940625;29;20047;-63
2020/12/19 05:30:31;;;;;;;12.80;8.82;;;;;;;;;;4942725;29;20054;-63
2020/12/19 05:32:57;;;;;;;14.70;10.38;;;;;;;;;;4943292;29;20043;-64
2020/12/19 05:35:24;;;;;;;14.70;9.30;;;;;;;;;;4926321;23;20414;-63
2020/12/19 05:37:55;;;;;;;14.35;9.75;;;;;;;;;;4955835;23;20050;-63
2020/12/19 05:40:23;;;;;;;12.68;8.65;;;;;;;;;;4945064;28;20418;-64
2020/12/19 05:42:49;;;;;;;11.90;9.00;;;;;;;;;;4961963;28;20077;-63
2020/12/19 05:45:17;;;;;;;14.98;9.57;;;;;;;;;;4944963;28;20133;-64
2020/12/19 05:47:44;;;;;;;12.70;9.27;;;;;;;;;;4929043;28;20043;-63
2020/12/19 05:50:10;;;;;;;14.20;9.27;;;;;;;;;;4961014;28;20059;-63
2020/12/19 05:52:38;;;;;;;15.52;9.05;;;;;;;;;;4932740;28;20047;-64
2020/12/19 05:55:07;;;;;;;17.00;9.88;;;;;;;;;;4959385;28;20047;-64
2020/12/19 05:57:35;;;;;;;23.10;10.07;;;;;;;;;;4938287;28;20055;-63
2020/12/19 06:00:14;;;;;;;13.95;9.45;;;;;;;;;;4942806;28;20151;-63
2020/12/19 06:02:41;;;;;;;11.25;8.30;;;;;;;;;;4945066;28;20051;-63
2020/12/19 06:05:11;;;;;;;18.02;10.35;;;;;;;;;;4959291;28;20053;-64
2020/12/19 06:07:39;;;;;;;11.90;8.80;;;;;;;;;;4943624;28;20067;-64
2020/12/19 06:10:08;;;;;;;15.30;10.32;;;;;;;;;;4946453;28;20402;-64
2020/12/19 06:13:16;;;;;;;13.02;9.20;;;;;;;;;;4947647;28;20050;-64
2020/12/19 06:15:59;;;;;;;13.52;9.00;;;;;;;;;;4941609;28;20050;-64
2020/12/19 06:18:56;;;;;;;13.73;9.05;;;;;;;;;;4940038;28;20075;-64
2020/12/19 06:21:22;;;;;;;16.30;9.27;;;;;;;;;;4941272;28;20410;-64
2020/12/19 06:23:48;;;;;;;14.73;9.35;;;;;;;;;;4929197;28;20042;-63
2020/12/19 06:26:14;;;;;;;15.23;9.00;;;;;;;;;;4927213;28;20060;-63
2020/12/19 06:28:41;;;;;;;14.98;9.82;;;;;;;;;;4941944;28;20066;-65
2020/12/19 06:31:08;;;;;;;17.20;9.25;;;;;;;;;;4943162;28;20236;-64
2020/12/19 06:33:36;;;;;;;13.80;9.13;;;;;;;;;;4942968;28;20046;-63
2020/12/19 06:36:04;;;;;;;10.27;8.32;;;;;;;;;;4946736;28;20051;-64
2020/12/19 06:38:45;;;;;;;14.80;9.25;;;;;;;;;;4937443;29;20395;-65
2020/12/19 06:41:50;;;;;;;11.88;8.95;;;;;;;;;;4936719;29;20231;-64
2020/12/19 06:44:30;;;;;;;12.32;8.90;;;;;;;;;;4949524;29;20055;-65
2020/12/19 06:46:59;;;;;;;14.10;8.98;;;;;;;;;;4932674;29;20165;-64
2020/12/19 06:49:25;;;;;;;13.65;9.60;;;;;;;;;;4951161;29;20388;-66
2020/12/19 06:52:14;;;;;;;15.43;9.73;;;;;;;;;;4934791;29;20051;-67
2020/12/19 06:54:42;;;;;;;13.50;9.32;;;;;;;;;;4936827;29;20080;-64
2020/12/19 06:57:21;;;;;;;12.10;9.07;;;;;;;;;;4936610;29;20059;-62
2020/12/19 06:59:47;;;;;;;15.07;9.70;;;;;;;;;;4953563;28;20147;-65
2020/12/19 07:02:19;;;;;;;13.25;9.02;;;;;;;;;;4940429;29;20627;-66
2020/12/19 07:04:46;;;;;;;12.90;9.15;;;;;;;;;;4950903;29;20074;-66
2020/12/19 07:07:15;;;;;;;13.90;8.77;;;;;;;;;;4949561;29;20047;-66
2020/12/19 07:09:42;;;;;;;14.82;9.15;;;;;;;;;;4934547;29;20051;-65
2020/12/19 07:12:31;;;;;;;14.60;9.80;;;;;;;;;;4934687;29;20054;-66
2020/12/19 07:14:57;;;;;;;16.35;9.73;;;;;;;;;;4934448;29;20062;-66
2020/12/19 07:17:23;;;;;;;16.10;10.23;;;;;;;;;;4933714;29;20418;-65
2020/12/19 07:19:57;;;;;;;13.77;8.88;;;;;;;;;;4934002;29;20051;-65
2020/12/19 07:22:26;;;;;;;15.55;9.07;;;;;;;;;;4934377;29;20058;-65
2020/12/19 07:24:53;;;;;;;14.35;9.13;;;;;;;;;;4933616;29;20059;-64
2020/12/19 07:27:23;;;;;;;15.73;9.60;;;;;;;;;;4916871;29;20062;-66
2020/12/19 07:29:50;;;;;;;17.70;8.75;;;;;;;;;;4914864;29;20407;-64
2020/12/19 07:32:16;;;;;;;13.98;9.32;;;;;;;;;;4900045;29;20053;-65
2020/12/19 07:34:42;;;;;;;13.60;9.02;;;;;;;;;;4914991;29;20148;-66
2020/12/19 07:37:09;;;;;;;14.13;8.15;;;;;;;;;;4928832;29;20512;-67
2020/12/19 07:39:35;;;;;;;13.50;9.20;;;;;;;;;;4934042;29;20059;-68
2020/12/19 07:42:07;;;;;;;12.73;9.32;;;;;;;;;;4934126;29;20369;-67
2020/12/19 07:44:34;;;;;;;14.25;9.07;;;;;;;;;;4934378;29;20059;-67
2020/12/19 07:47:11;;;;;;;12.50;8.73;;;;;;;;;;4934852;29;20055;-67
2020/12/19 07:49:46;;;;;;;13.85;9.07;;;;;;;;;;4940020;29;20055;-67
2020/12/19 07:52:20;;;;;;;12.18;8.90;;;;;;;;;;4941293;28;20138;-68
2020/12/19 07:55:00;;;;;;;13.27;8.38;;;;;;;;;;4956849;28;20409;-67
2020/12/19 07:57:31;;;;;;;12.40;9.07;;;;;;;;;;4941254;28;20379;-67
2020/12/19 07:59:58;;;;;;;12.07;9.13;;;;;;;;;;4929888;28;20047;-66
2020/12/19 08:02:25;;;;;;;14.82;9.13;;;;;;;;;;4930343;28;20062;-67
2020/12/19 08:04:53;;;;;;;11.98;8.63;;;;;;;;;;4957198;28;20051;-68
2020/12/19 08:07:21;;;;;;;12.15;8.35;;;;;;;;;;4943152;28;20054;-67
2020/12/19 08:09:48;;;;;;;12.73;8.98;;;;;;;;;;4941953;28;20425;-66
2020/12/19 08:12:15;;;;;;;11.63;8.63;;;;;;;;;;4940121;28;20059;-66
2020/12/19 08:14:41;;;;;;;11.30;8.30;;;;;;;;;;4925558;28;20066;-66
2020/12/19 08:17:12;;;;;;;13.15;8.70;;;;;;;;;;4927459;28;20051;-65
2020/12/19 08:19:50;;;;;;;14.13;8.20;;;;;;;;;;4926638;28;20542;-65
2020/12/19 08:22:17;;;;;;;13.52;8.55;;;;;;;;;;4931764;28;20060;-65
2020/12/19 08:24:57;;;;;;;13.27;9.15;;;;;;;;;;4935302;28;20478;-65
2020/12/19 08:27:35;;;;;;;12.45;8.20;;;;;;;;;;4941934;28;20040;-65
2020/12/19 08:30:12;;;;;;;14.88;8.77;;;;;;;;;;4941027;28;20051;-65
2020/12/19 08:32:42;;;;;;;11.55;7.97;;;;;;;;;;4939997;29;20055;-66
2020/12/19 08:35:09;;;;;;;14.23;8.90;;;;;;;;;;4958833;28;20553;-66
2020/12/19 08:37:35;;;;;;;10.32;7.47;;;;;;;;;;4926264;28;20047;-66
2020/12/19 08:40:09;;;;;;;13.57;9.00;;;;;;;;;;4944891;28;20079;-66
2020/12/19 08:42:42;;;;;;;10.30;7.65;;;;;;;;;;4941328;28;20051;-66
2020/12/19 08:45:29;;;;;;;10.70;7.95;;;;;;;;;;4957679;28;20042;-66
2020/12/19 08:47:58;;;;;;;15.45;8.02;;;;;;;;;;4961026;28;20058;-66
2020/12/19 08:50:28;;;;;;;13.10;7.90;;;;;;;;;;4958926;28;20071;-66
2020/12/19 08:53:17;;;;;;;11.43;7.20;;;;;;;;;;4942769;28;20070;-66
2020/12/19 08:55:44;;;;;;;10.27;7.45;;;;;;;;;;4943530;28;20055;-66
2020/12/19 08:58:24;;;;;;;8.68;6.78;;;;;;;;;;4944075;28;20055;-66
2020/12/19 09:00:51;;;;;;;8.65;6.90;;;;;;;;;;4937081;28;20068;-66
2020/12/19 09:03:38;;;;;;;9.27;7.13;;;;;;;;;;4927807;28;20043;-66
2020/12/19 09:06:06;;;;;;;10.00;7.30;;;;;;;;;;4963375;28;20406;-66
2020/12/19 09:08:38;;;;;;;9.77;6.57;;;;;;;;;;4926890;28;20406;-66
2020/12/19 09:11:06;;;;;;;8.93;7.20;;;;;;;;;;4940548;28;20062;-66
2020/12/19 09:13:32;;;;;;;9.32;6.85;;;;;;;;;;4941720;28;20051;-66
2020/12/19 09:16:07;;;;;;;9.38;6.82;;;;;;;;;;4956173;28;20057;-67
2020/12/19 09:18:34;;;;;;;10.70;6.57;;;;;;;;;;4930461;28;20054;-66
2020/12/19 09:21:02;;;;;;;8.45;6.32;;;;;;;;;;4941140;28;20109;-67
2020/12/19 09:23:29;;;;;;;9.02;6.22;;;;;;;;;;4959122;28;20047;-66
2020/12/19 09:25:57;;;;;;;11.57;6.68;;;;;;;;;;4942200;28;20058;-66
2020/12/19 09:28:23;;;;;;;8.50;6.07;;;;;;;;;;4947004;28;20077;-66
2020/12/19 09:30:51;;;;;;;9.18;6.90;;;;;;;;;;4927444;28;20051;-66
2020/12/19 09:33:17;;;;;;;8.80;6.82;;;;;;;;;;4928391;28;20062;-66
2020/12/19 09:35:44;;;;;;;8.05;6.18;;;;;;;;;;4955117;23;20061;-66
2020/12/19 09:38:10;;;;;;;7.07;6.22;;;;;;;;;;4964551;23;20058;-66
2020/12/19 09:40:36;;;;;;;6.97;6.25;;;;;;;;;;4964196;28;20065;-66
2020/12/19 09:43:03;;;;;;;8.75;6.28;;;;;;;;;;4961403;28;20055;-66
2020/12/19 09:45:29;;;;;;;7.45;5.88;;;;;;;;;;4965377;28;20050;-66
2020/12/19 09:47:56;;;;;;;7.55;6.68;;;;;;;;;;4963329;28;20050;-67
2020/12/19 09:50:23;;;;;;;8.55;5.82;;;;;;;;;;4947135;28;20050;-66
2020/12/19 09:52:50;;;;;;;6.63;5.65;;;;;;;;;;4961963;28;20053;-66
2020/12/19 09:55:16;;;;;;;7.72;6.07;;;;;;;;;;4963182;28;20051;-67
2020/12/19 09:57:42;;;;;;;7.80;6.40;;;;;;;;;;4963605;28;20054;-67
2020/12/19 10:00:10;;;;;;;8.53;6.20;;;;;;;;;;4965653;28;20053;-66
2020/12/19 10:02:36;;;;;;;7.78;5.78;;;;;;;;;;4961424;28;20077;-66
2020/12/19 10:05:06;;;;;;;9.10;5.68;;;;;;;;;;4982597;28;20082;-67
2020/12/19 10:07:32;;;;;;;7.35;5.25;;;;;;;;;;4963579;28;20042;-66
2020/12/19 10:17:00;;;;;;;8.77;5.80;;;;;;;;;;4991839;23;20336;-67
2020/12/19 10:30:45;;;;;;;8.80;5.65;;;;;;;;;;4921552;29;20063;-67
2020/12/19 10:33:12;;;;;;;7.70;5.97;;;;;;;;;;4919141;29;20051;-67
2020/12/19 10:35:38;;;;;;;7.38;6.03;;;;;;;;;;4922293;29;20529;-67
2020/12/19 10:38:04;;;;;;;8.25;6.05;;;;;;;;;;4915641;29;20052;-66
2020/12/19 10:43:00;;;;;;;7.50;5.50;;;;;;;;;;5001511;23;20117;-66
2020/12/19 10:45:26;;;;;;;7.25;5.55;;;;;;;;;;4946109;28;20062;-67
2020/12/19 10:47:52;;;;;;;9.57;5.70;;;;;;;;;;4944472;28;20073;-67
2020/12/19 10:50:19;;;;;;;6.57;5.53;;;;;;;;;;4964313;28;20054;-67
2020/12/19 10:52:47;;;;;;;7.22;5.80;;;;;;;;;;4945616;28;20078;-67
2020/12/19 10:55:13;;;;;;;7.40;5.22;;;;;;;;;;4942445;28;20043;-67
2020/12/19 10:57:39;;;;;;;7.15;5.72;;;;;;;;;;4941488;28;20051;-68
2020/12/19 11:00:06;;;;;;;6.13;5.30;;;;;;;;;;4943098;28;20062;-67
2020/12/19 11:02:32;;;;;;;7.32;5.53;;;;;;;;;;4942526;29;20143;-67
2020/12/19 11:04:58;;;;;;;7.03;5.32;;;;;;;;;;4943709;28;20055;-67
2020/12/19 11:07:24;;;;;;;5.82;4.53;;;;;;;;;;4957903;28;20052;-68
2020/12/19 11:09:50;;;;;;;6.43;4.95;;;;;;;;;;4959271;28;20098;-68
2020/12/19 11:12:16;;;;;;;7.57;5.03;;;;;;;;;;4957293;28;20062;-68
2020/12/19 11:14:43;;;;;;;12.07;6.15;;;;;;;;;;4943779;28;20051;-68
2020/12/19 11:17:09;;;;;;;7.43;4.88;;;;;;;;;;4958522;28;20058;-68
2020/12/19 11:19:38;;;;;;;7.93;4.95;;;;;;;;;;4928708;28;20110;-68
2020/12/19 11:22:05;;;;;;;7.85;4.85;;;;;;;;;;4959326;28;20047;-72
2020/12/19 11:24:31;;;;;;;6.38;4.63;;;;;;;;;;4942173;29;20482;-66
2020/12/19 11:26:58;;;;;;;6.65;5.07;;;;;;;;;;4942055;28;20058;-67
2020/12/19 11:29:25;;;;;;;7.40;4.65;;;;;;;;;;4935872;29;20094;-69
2020/12/19 11:31:51;;;;;;;8.55;4.90;;;;;;;;;;4943785;28;20502;-69
2020/12/19 11:34:17;;;;;;;5.95;4.20;;;;;;;;;;4924763;28;20503;-69
2020/12/19 11:36:43;;;;;;;6.07;4.50;;;;;;;;;;4954623;28;20046;-68
2020/12/19 11:39:11;;;;;;;5.57;4.40;;;;;;;;;;4940138;28;20109;-69
2020/12/19 11:41:41;;;;;;;6.45;4.70;;;;;;;;;;4939228;28;20395;-66
2020/12/19 11:44:08;;;;;;;5.50;4.20;;;;;;;;;;4941739;28;20583;-65
2020/12/19 11:46:34;;;;;;;7.35;4.93;;;;;;;;;;4951641;28;20073;-67
2020/12/19 11:49:00;;;;;;;6.00;4.47;;;;;;;;;;4951893;28;20051;-66
2020/12/19 11:51:31;;;;;;;6.57;4.38;;;;;;;;;;4951491;28;20399;-65
2020/12/19 11:53:58;;;;;;;5.50;3.95;;;;;;;;;;4967274;28;20071;-67
2020/12/19 11:56:25;;;;;;;6.65;4.93;;;;;;;;;;4952720;28;20417;-66
2020/12/19 11:58:51;;;;;;;4.97;3.75;;;;;;;;;;4952891;28;20057;-66
2020/12/19 12:01:17;;;;;;;7.47;3.78;;;;;;;;;;4953451;28;20069;-66
2020/12/19 12:03:43;;;;;;;5.10;3.92;;;;;;;;;;4934806;29;20055;-66
2020/12/19 12:06:10;;;;;;;8.95;4.13;;;;;;;;;;4933372;29;20126;-65
2020/12/19 12:08:42;;;;;;;5.18;3.97;;;;;;;;;;4933945;28;20065;-65
2020/12/19 12:11:09;;;;;;;6.70;4.43;;;;;;;;;;4944046;28;20054;-66
2020/12/19 12:13:36;;;;;;;7.65;4.25;;;;;;;;;;4940903;28;20055;-66
2020/12/19 12:16:02;;;;;;;6.97;4.28;;;;;;;;;;4944178;28;20105;-66
2020/12/19 12:18:29;;;;;;;8.77;4.88;;;;;;;;;;4945366;28;20050;-65
2020/12/19 12:20:55;;;;;;;7.70;4.82;;;;;;;;;;4941886;28;20069;-66
2020/12/19 12:23:21;;;;;;;5.07;4.32;;;;;;;;;;4924374;29;20044;-65
2020/12/19 12:25:50;;;;;;;6.53;4.60;;;;;;;;;;4943619;28;20154;-65
2020/12/19 12:28:16;;;;;;;5.68;4.05;;;;;;;;;;4939861;28;20055;-66
2020/12/19 12:30:42;;;;;;;4.90;3.88;;;;;;;;;;4944315;28;20085;-66
2020/12/19 12:33:09;;;;;;;5.47;4.15;;;;;;;;;;4940786;28;20058;-65
2020/12/19 12:35:35;;;;;;;4.40;3.83;;;;;;;;;;4942489;28;20050;-65
2020/12/19 12:38:04;;;;;;;5.45;4.03;;;;;;;;;;4940127;28;20047;-65
2020/12/19 12:40:31;;;;;;;6.30;4.53;;;;;;;;;;4941866;28;20051;-65
2020/12/19 12:42:57;;;;;;;5.97;4.05;;;;;;;;;;4960300;28;20069;-65
2020/12/19 12:45:23;;;;;;;6.03;4.00;;;;;;;;;;4939554;28;20070;-65
2020/12/19 12:47:50;;;;;;;4.90;3.75;;;;;;;;;;4943146;28;20046;-65
2020/12/19 12:50:16;;;;;;;5.93;4.20;;;;;;;;;;4943832;28;20478;-65
2020/12/19 12:52:43;;;;;;;5.60;3.80;;;;;;;;;;4942357;28;20113;-66
2020/12/19 12:55:09;;;;;;;4.82;3.80;;;;;;;;;;4942939;28;20528;-66
2020/12/19 12:57:36;;;;;;;5.40;4.20;;;;;;;;;;4943937;28;20605;-66
2020/12/19 13:00:05;;;;;;;7.70;4.18;;;;;;;;;;4944197;28;20048;-66
2020/12/19 13:02:32;;;;;;;4.18;3.78;;;;;;;;;;4945464;28;20474;-66
2020/12/19 13:04:58;;;;;;;4.63;3.88;;;;;;;;;;4942909;28;20056;-66
2020/12/19 13:07:24;;;;;;;5.03;4.10;;;;;;;;;;4944413;28;20051;-67
2020/12/19 13:09:50;;;;;;;5.22;4.53;;;;;;;;;;4945611;28;20050;-66
2020/12/19 13:12:29;;;;;;;5.22;4.00;;;;;;;;;;4949328;28;20371;-66
2020/12/19 13:14:56;;;;;;;6.63;4.18;;;;;;;;;;4945160;28;20063;-66
2020/12/19 13:17:22;;;;;;;5.80;4.60;;;;;;;;;;4943846;28;20055;-66
2020/12/19 13:19:49;;;;;;;5.50;4.22;;;;;;;;;;4944168;28;20564;-67
2020/12/19 13:22:15;;;;;;;7.68;3.85;;;;;;;;;;4944185;28;20059;-66
2020/12/19 13:24:41;;;;;;;6.50;4.60;;;;;;;;;;4944011;28;20056;-66
2020/12/19 13:27:07;;;;;;;5.38;4.28;;;;;;;;;;4943205;28;20051;-66
2020/12/19 13:29:35;;;;;;;4.32;3.63;;;;;;;;;;4944691;28;20050;-61
2020/12/19 13:32:01;;;;;;;7.18;4.10;;;;;;;;;;4945822;28;20051;-61
2020/12/19 13:34:27;;;;;;;4.60;3.10;;;;;;;;;;4949255;28;20055;-61
2020/12/19 13:36:54;;;;;;;6.35;3.60;;;;;;;;;;4964072;28;20051;-61
2020/12/19 13:39:20;;;;;;;4.78;3.63;;;;;;;;;;4947185;28;20051;-62
2020/12/19 13:41:46;;;;;;;5.32;3.92;;;;;;;;;;4942366;28;20055;-65
2020/12/19 13:44:13;;;;;;;5.80;3.90;;;;;;;;;;4944999;28;20437;-65
2020/12/19 13:46:39;;;;;;;4.35;3.65;;;;;;;;;;4945874;28;20405;-65
2020/12/19 13:49:06;;;;;;;4.00;3.55;;;;;;;;;;4965993;28;20453;-65
2020/12/19 13:51:32;;;;;;;5.85;3.55;;;;;;;;;;4946575;28;20057;-65
2020/12/19 13:53:59;;;;;;;5.03;4.07;;;;;;;;;;4947027;28;20039;-65
2020/12/19 13:56:26;;;;;;;6.97;3.80;;;;;;;;;;4942606;28;20047;-65
2020/12/19 13:58:52;;;;;;;6.43;3.88;;;;;;;;;;4928124;29;20533;-65
2020/12/19 14:01:19;;;;;;;7.30;4.10;;;;;;;;;;4942705;28;20441;-65
2020/12/19 14:03:45;;;;;;;7.78;3.95;;;;;;;;;;4946059;28;20054;-65
2020/12/19 14:06:13;;;;;;;5.47;3.72;;;;;;;;;;4942741;28;20506;-64
2020/12/19 14:08:40;;;;;;;6.05;4.18;;;;;;;;;;4946324;28;20393;-65
2020/12/19 14:11:07;;;;;;;6.10;3.90;;;;;;;;;;4944719;28;20055;-64
2020/12/19 14:13:33;;;;;;;5.43;4.00;;;;;;;;;;4943190;28;20522;-65
2020/12/19 14:16:00;;;;;;;5.57;4.43;;;;;;;;;;4943656;28;20065;-65
2020/12/19 14:18:26;;;;;;;7.10;4.22;;;;;;;;;;4946371;29;20138;-64
2020/12/19 14:20:53;;;;;;;5.28;4.15;;;;;;;;;;4946529;28;20058;-65
2020/12/19 14:23:19;;;;;;;6.95;5.20;;;;;;;;;;4943352;28;20043;-65
2020/12/19 14:25:46;;;;;;;7.63;4.53;;;;;;;;;;4943692;28;20047;-65
2020/12/19 14:28:12;;;;;;;6.13;4.25;;;;;;;;;;4942137;28;20046;-65
2020/12/19 14:30:39;;;;;;;5.63;4.43;;;;;;;;;;4946095;28;20508;-64
2020/12/19 14:33:05;;;;;;;7.88;4.30;;;;;;;;;;4943547;28;20051;-64
2020/12/19 14:35:32;;;;;;;4.72;3.92;;;;;;;;;;4960017;28;20064;-64
2020/12/19 14:37:58;;;;;;;6.47;5.25;;;;;;;;;;4941918;28;20209;-65
2020/12/19 14:40:26;;;;;;;9.75;5.00;;;;;;;;;;4944183;28;20516;-64
2020/12/19 14:42:53;;;;;;;5.25;4.07;;;;;;;;;;4943306;28;20784;-65
2020/12/19 14:45:19;;;;;;;7.32;4.88;;;;;;;;;;4955443;28;20054;-65
2020/12/19 14:47:49;;;;;;;6.72;4.90;;;;;;;;;;4941619;28;21968;-65
2020/12/19 14:50:16;;;;;;;8.13;5.43;;;;;;;;;;4944953;28;20051;-64
2020/12/19 14:52:43;;;;;;;7.47;4.93;;;;;;;;;;4943070;28;20146;-65
2020/12/19 14:55:11;;;;;;;6.15;4.75;;;;;;;;;;4942506;28;20063;-64
2020/12/19 14:57:38;;;;;;;6.25;4.40;;;;;;;;;;4944433;28;20059;-64
2020/12/19 15:00:05;;;;;;;5.85;4.68;;;;;;;;;;4943574;28;20090;-65
2020/12/19 15:02:34;;;;;;;10.13;5.47;;;;;;;;;;4942718;28;20137;-65
2020/12/19 15:05:02;;;;;;;7.65;5.68;;;;;;;;;;4943464;28;20086;-65